Time;durP1;ratioP1;P1;durP2;ratioP2;P2;SDS_P1;SDS_P2;PMS_P1;PMS_P2;Temp;Humidity;BMP_temperature;BMP_pressure;BME280_temperature;BME280_humidity;BME280_pressure;Samples;Min_cycle;Max_cycle;Signal;HPM_P1;HPM_P2
2022/01/17 00:01:15;;;;;;;39.50;18.90;;;;;;;-1.38;67.16;98961.49;106149;1274;95830;-75
2022/01/17 00:03:44;;;;;;;39.10;18.70;;;;;;;-1.36;66.95;98950.84;106208;1274;106219;-76
2022/01/17 00:06:14;;;;;;;39.80;19.00;;;;;;;-1.31;66.77;98950.02;106165;1274;97966;-73
2022/01/17 00:08:44;;;;;;;41.50;19.30;;;;;;;-1.26;66.89;98954.77;106256;1274;97831;-74
2022/01/17 00:11:14;;;;;;;37.80;17.60;;;;;;;-1.24;66.95;98952.27;106243;1272;111461;-73
2022/01/17 00:13:49;;;;;;;38.60;16.70;;;;;;;-1.22;67.08;98950.46;106248;1274;97867;-74
2022/01/17 00:16:32;;;;;;;38.30;18.20;;;;;;;-1.20;67.04;98945.53;106241;1274;107735;-74
2022/01/17 00:21:37;;;;;;;39.90;17.90;;;;;;;-1.19;67.41;98937.18;106268;1274;97859;-74
2022/01/17 00:24:09;;;;;;;40.00;19.10;;;;;;;-1.20;67.61;98934.41;106258;1274;111309;-74
2022/01/17 00:26:37;;;;;;;42.70;19.20;;;;;;;-1.20;67.62;98931.27;106234;1274;97969;-74
2022/01/17 00:29:05;;;;;;;37.20;17.30;;;;;;;-1.20;67.93;98930.40;106223;1274;107657;-77
2022/01/17 00:31:32;;;;;;;38.30;18.30;;;;;;;-1.18;67.84;98922.89;106191;1273;97901;-73
2022/01/17 00:34:00;;;;;;;36.20;18.10;;;;;;;-1.17;68.29;98931.73;106246;1274;97955;-74
2022/01/17 00:36:28;;;;;;;38.90;18.90;;;;;;;-1.17;68.22;98926.31;106223;1274;109345;-73
2022/01/17 00:38:59;;;;;;;37.20;17.00;;;;;;;-1.15;68.22;98915.48;106158;1274;97958;-73
2022/01/17 00:41:27;;;;;;;42.10;18.40;;;;;;;-1.14;68.02;98911.80;106219;1273;106962;-71
2022/01/17 00:43:55;;;;;;;38.80;17.90;;;;;;;-1.13;68.15;98912.30;106216;1274;99228;-75
2022/01/17 00:46:23;;;;;;;37.50;16.90;;;;;;;-1.10;68.28;98912.76;106284;1274;97935;-74
2022/01/17 00:48:51;;;;;;;38.40;17.90;;;;;;;-1.10;68.21;98910.66;106262;1274;111361;-75
2022/01/17 00:51:21;;;;;;;37.50;17.60;;;;;;;-1.10;68.32;98905.23;106271;1274;97943;-76
2022/01/17 00:53:53;;;;;;;37.30;16.20;;;;;;;-1.09;68.22;98911.13;106258;1274;107642;-75
2022/01/17 00:56:23;;;;;;;38.80;18.30;;;;;;;-1.08;68.44;98905.20;106227;1274;97890;-76
2022/01/17 00:58:51;;;;;;;37.20;17.10;;;;;;;-1.07;68.62;98898.56;106181;1274;97962;-75
2022/01/17 01:01:23;;;;;;;39.40;17.60;;;;;;;-1.07;68.44;98895.95;106186;1273;111450;-74
2022/01/17 01:03:52;;;;;;;39.70;17.50;;;;;;;-1.08;68.59;98889.53;106292;1274;95201;-74
2022/01/17 01:06:22;;;;;;;39.60;18.30;;;;;;;-1.07;68.48;98883.43;106290;1274;105828;-73
2022/01/17 01:08:50;;;;;;;41.30;18.20;;;;;;;-1.07;68.45;98882.70;106272;1272;97867;-75
2022/01/17 01:11:17;;;;;;;37.70;16.80;;;;;;;-1.04;68.56;98880.38;106249;1274;95345;-74
2022/01/17 01:13:45;;;;;;;36.50;16.60;;;;;;;-1.03;68.51;98873.22;106217;1274;111339;-73
2022/01/17 01:29:50;;;;;;;37.40;17.60;;;;;;;-0.88;68.68;98853.48;106142;1274;97962;-74
2022/01/17 01:32:24;;;;;;;34.80;15.90;;;;;;;-0.85;68.56;98842.77;106158;1274;107942;-78
2022/01/17 01:34:56;;;;;;;35.40;15.80;;;;;;;-0.83;68.84;98840.80;106181;1273;95715;-75
2022/01/17 01:37:26;;;;;;;38.80;17.20;;;;;;;-0.83;68.95;98833.46;106154;1275;97972;-74
2022/01/17 01:39:55;;;;;;;39.30;18.50;;;;;;;-0.81;68.87;98836.71;106233;1274;111440;-75
2022/01/17 01:42:25;;;;;;;37.20;18.20;;;;;;;-0.78;68.97;98829.67;106185;1274;95306;-75
2022/01/17 01:44:54;;;;;;;41.10;17.60;;;;;;;-0.74;69.13;98827.81;106146;1274;107817;-75
2022/01/17 01:47:25;;;;;;;34.00;17.80;;;;;;;-0.71;69.01;98824.94;106030;1272;97998;-74
2022/01/17 01:49:55;;;;;;;40.20;17.00;;;;;;;-0.68;69.15;98817.70;106258;1274;97999;-72
2022/01/17 01:52:23;;;;;;;41.00;18.40;;;;;;;-0.64;69.20;98812.53;106271;1274;111712;-74
2022/01/17 01:54:51;;;;;;;35.00;16.90;;;;;;;-0.59;69.23;98810.27;106037;1274;96676;-73
2022/01/17 01:57:19;;;;;;;38.70;17.40;;;;;;;-0.54;69.26;98798.98;106205;1272;107790;-74
2022/01/17 01:59:47;;;;;;;37.40;17.10;;;;;;;-0.49;69.09;98789.59;106187;1274;97962;-75
2022/01/17 02:02:14;;;;;;;35.10;16.60;;;;;;;-0.43;69.33;98782.61;106217;1274;97881;-73
2022/01/17 02:04:45;;;;;;;34.10;15.70;;;;;;;-0.36;69.31;98780.64;106156;1274;111295;-73
2022/01/17 02:07:15;;;;;;;32.90;15.80;;;;;;;-0.29;69.26;98781.44;107079;1273;97893;-73
2022/01/17 02:09:44;;;;;;;35.80;15.90;;;;;;;-0.22;69.40;98781.08;106253;1274;107522;-74
2022/01/17 02:12:17;;;;;;;32.90;15.20;;;;;;;-0.15;69.46;98772.10;106205;1274;98460;-74
2022/01/17 02:14:52;;;;;;;32.80;14.80;;;;;;;-0.05;69.50;98760.42;106237;1274;97857;-73
2022/01/17 02:17:24;;;;;;;29.80;14.80;;;;;;;0.07;69.64;98758.80;106138;1274;111527;-74
2022/01/17 02:20:05;;;;;;;26.80;12.60;;;;;;;0.18;69.75;98754.77;106230;1274;97880;-75
2022/01/17 02:22:41;;;;;;;26.40;12.00;;;;;;;0.29;69.75;98763.27;106164;1274;107826;-75
2022/01/17 02:25:11;;;;;;;;;;;;;;;0.40;69.69;98763.56;106231;1274;97899;-72
2022/01/17 02:27:38;;;;;;;25.40;11.50;;;;;;;0.48;69.77;98758.40;106224;1274;97879;-73
2022/01/17 02:30:13;;;;;;;24.90;11.40;;;;;;;0.58;69.64;98747.73;106184;1274;111447;-73
2022/01/17 02:32:41;;;;;;;26.50;11.90;;;;;;;0.68;70.10;98753.84;106175;1274;96770;-73
2022/01/17 02:35:18;;;;;;;25.70;12.60;;;;;;;0.77;70.14;98743.75;106148;1274;106139;-73
2022/01/17 02:37:48;;;;;;;24.00;11.70;;;;;;;0.86;70.76;98735.69;106266;1274;97860;-73
2022/01/17 02:40:20;;;;;;;26.70;12.40;;;;;;;0.96;70.33;98730.98;106273;1274;97963;-73
2022/01/17 02:43:02;;;;;;;26.80;12.10;;;;;;;1.03;70.35;98730.70;106192;1274;111160;-74
2022/01/17 02:46:24;;;;;;;24.50;11.00;;;;;;;1.09;70.29;98727.16;106277;1273;97960;-73
2022/01/17 02:48:33;;;;;;;22.60;11.40;;;;;;;1.15;70.23;98718.85;106269;1273;108080;-73
2022/01/17 02:51:04;;;;;;;25.70;11.10;;;;;;;1.22;70.44;98715.98;106260;1274;97895;-72
2022/01/17 02:53:34;;;;;;;25.50;11.40;;;;;;;1.29;70.56;98704.34;106278;1274;97904;-77
2022/01/17 02:56:08;;;;;;;24.70;10.80;;;;;;;1.35;70.56;98712.15;106276;1274;111362;-78
2022/01/17 02:58:40;;;;;;;22.60;11.40;;;;;;;1.39;70.24;98708.48;106230;1274;95280;-75
2022/01/17 03:01:16;;;;;;;27.90;12.60;;;;;;;1.43;69.98;98707.81;106224;1274;107058;-75
2022/01/17 03:03:47;;;;;;;23.90;10.70;;;;;;;1.46;70.06;98710.11;106241;1274;95307;-75
2022/01/17 03:06:17;;;;;;;23.80;11.40;;;;;;;1.49;70.38;98708.27;106172;1275;95374;-72
2022/01/17 03:08:47;;;;;;;23.80;11.50;;;;;;;1.52;70.43;98705.70;106192;1274;111585;-74
2022/01/17 03:11:19;;;;;;;23.70;10.60;;;;;;;1.55;70.23;98702.77;106220;1274;97924;-74
2022/01/17 03:13:48;;;;;;;23.80;11.50;;;;;;;1.57;70.36;98697.78;106208;1274;107939;-75
2022/01/17 03:16:33;;;;;;;23.80;11.30;;;;;;;1.59;70.46;98691.23;106188;1274;97894;-75
2022/01/17 03:19:03;;;;;;;21.80;10.10;;;;;;;1.61;70.42;98691.15;106229;1274;98452;-73
2022/01/17 03:21:32;;;;;;;22.60;10.20;;;;;;;1.64;70.79;98685.23;106251;1274;110382;-71
2022/01/17 03:24:01;;;;;;;21.40;10.50;;;;;;;1.66;71.04;98685.00;106223;1274;98024;-71
2022/01/17 03:26:33;;;;;;;22.70;9.50;;;;;;;1.67;70.63;98678.15;106130;1274;107704;-74
2022/01/17 03:29:04;;;;;;;24.20;11.30;;;;;;;1.69;70.67;98686.09;106259;1274;97917;-74
2022/01/17 03:31:32;;;;;;;25.60;11.80;;;;;;;1.71;71.30;98683.23;106154;1274;142596;-74
2022/01/17 03:34:00;;;;;;;23.40;10.90;;;;;;;1.73;70.93;98677.19;106219;1274;110426;-73
2022/01/17 03:36:28;;;;;;;26.00;12.10;;;;;;;1.75;70.90;98678.16;106227;1274;98082;-73
2022/01/17 03:38:56;;;;;;;23.90;10.80;;;;;;;1.75;70.82;98665.05;106196;1274;107727;-73
2022/01/17 03:41:24;;;;;;;24.50;11.90;;;;;;;1.76;70.77;98662.89;106188;1274;97895;-72
2022/01/17 03:43:52;;;;;;;23.20;11.20;;;;;;;1.78;70.65;98663.67;106211;1274;97918;-70
2022/01/17 03:46:20;;;;;;;25.10;10.90;;;;;;;1.81;70.58;98660.59;106271;1273;111389;-72
2022/01/17 03:48:48;;;;;;;23.50;11.40;;;;;;;1.82;70.76;98653.23;106223;1273;97944;-73
2022/01/17 03:51:16;;;;;;;29.00;13.30;;;;;;;1.84;70.84;98650.52;106238;1274;107716;-73
2022/01/17 03:53:43;;;;;;;25.20;12.70;;;;;;;1.84;70.84;98649.27;106215;1274;97994;-74
2022/01/17 03:56:11;;;;;;;28.10;13.80;;;;;;;1.85;70.98;98650.97;106231;1274;95479;-72
2022/01/17 03:58:39;;;;;;;24.50;11.40;;;;;;;1.87;70.98;98644.08;106185;1274;109582;-73
2022/01/17 04:01:09;;;;;;;25.50;12.90;;;;;;;1.87;70.96;98637.23;106206;1274;97985;-74
2022/01/17 04:03:40;;;;;;;25.00;12.50;;;;;;;1.88;70.95;98645.96;106127;1274;107613;-75
2022/01/17 04:06:08;;;;;;;28.70;14.50;;;;;;;1.89;71.14;98643.98;106147;1274;98586;-75
2022/01/17 04:08:36;;;;;;;25.20;12.70;;;;;;;1.89;71.06;98632.44;106241;1274;97762;-74
2022/01/17 04:11:04;;;;;;;25.90;12.60;;;;;;;1.91;71.10;98633.39;106242;1274;113210;-74
2022/01/17 04:13:33;;;;;;;27.80;14.00;;;;;;;1.93;71.22;98637.84;106192;1274;95774;-73
2022/01/17 04:16:04;;;;;;;27.90;12.80;;;;;;;1.95;71.18;98639.02;106258;1273;107777;-74
2022/01/17 04:18:32;;;;;;;25.70;11.80;;;;;;;1.96;71.14;98631.44;106253;1274;98929;-75
2022/01/17 04:21:02;;;;;;;26.00;13.40;;;;;;;1.98;71.18;98623.86;106239;1274;97981;-77
2022/01/17 04:23:30;;;;;;;23.90;13.40;;;;;;;2.00;71.07;98629.02;106210;1274;111605;-74
2022/01/17 04:25:58;;;;;;;30.80;13.80;;;;;;;2.01;71.24;98624.93;106235;1274;97904;-72
2022/01/17 04:28:26;;;;;;;26.50;14.30;;;;;;;2.03;71.20;98616.63;106168;1274;107847;-71
2022/01/17 04:30:54;;;;;;;25.90;12.80;;;;;;;2.05;71.34;98619.83;106209;1274;97921;-74
2022/01/17 04:33:22;;;;;;;26.00;13.50;;;;;;;2.07;71.34;98608.38;106296;1274;95177;-73
2022/01/17 04:35:50;;;;;;;27.90;14.10;;;;;;;2.09;71.08;98596.77;106241;1274;111575;-75
2022/01/17 04:38:20;;;;;;;26.60;12.40;;;;;;;2.10;71.40;98587.12;106234;1274;95864;-73
2022/01/17 04:41:00;;;;;;;24.70;12.10;;;;;;;2.12;71.32;98578.62;106227;1274;109174;-73
2022/01/17 04:45:07;;;;;;;24.50;12.10;;;;;;;2.13;71.37;98574.55;106046;1274;97951;-73
2022/01/17 04:46:20;;;;;;;26.00;12.30;;;;;;;2.14;71.15;98575.91;106131;1274;97943;-74
2022/01/17 04:48:48;;;;;;;24.30;12.10;;;;;;;2.16;71.15;98569.70;106129;1274;111127;-72
2022/01/17 04:51:16;;;;;;;25.30;12.40;;;;;;;2.16;71.29;98558.83;106224;1274;97896;-74
2022/01/17 04:53:57;;;;;;;26.90;11.50;;;;;;;2.16;71.22;98560.39;106261;1274;107586;-76
2022/01/17 04:56:26;;;;;;;23.50;11.10;;;;;;;2.16;71.56;98559.89;106172;1274;97879;-74
2022/01/17 04:58:54;;;;;;;25.50;12.20;;;;;;;2.16;71.06;98562.53;106282;1274;97857;-73
2022/01/17 05:01:22;;;;;;;25.10;12.10;;;;;;;2.15;71.25;98566.77;106269;1274;111280;-73
2022/01/17 05:03:51;;;;;;;24.00;10.90;;;;;;;2.14;71.39;98561.52;106215;1274;95183;-72
2022/01/17 05:06:19;;;;;;;23.40;11.30;;;;;;;2.14;71.59;98562.80;106221;1273;107729;-73
2022/01/17 05:08:47;;;;;;;22.50;10.40;;;;;;;2.13;71.54;98563.51;106244;1274;97752;-71
2022/01/17 05:11:24;;;;;;;23.10;10.40;;;;;;;2.13;71.51;98566.86;106274;1273;97860;-73
2022/01/17 05:13:53;;;;;;;24.30;10.50;;;;;;;2.12;71.43;98565.85;106232;1274;111476;-73
2022/01/17 05:16:24;;;;;;;25.40;10.90;;;;;;;2.13;71.77;98564.39;106280;1274;97971;-73
2022/01/17 05:21:39;;;;;;;22.20;10.10;;;;;;;2.16;71.69;98566.35;106089;1274;97846;-74
2022/01/17 05:24:07;;;;;;;21.30;10.20;;;;;;;2.18;71.60;98562.27;106163;1274;95379;-72
2022/01/17 05:26:35;;;;;;;20.50;9.00;;;;;;;2.20;71.84;98564.59;106191;1274;111361;-72
2022/01/17 05:29:03;;;;;;;21.90;9.50;;;;;;;2.24;71.91;98557.08;106197;1274;97932;-72
2022/01/17 05:31:30;;;;;;;20.50;8.80;;;;;;;2.27;71.67;98559.73;106204;1274;107707;-73
2022/01/17 05:33:58;;;;;;;19.30;8.60;;;;;;;2.31;71.83;98550.97;106212;1274;95407;-72
2022/01/17 05:36:26;;;;;;;19.50;8.60;;;;;;;2.34;72.01;98541.18;106272;1274;95258;-72
2022/01/17 05:38:56;;;;;;;21.30;8.30;;;;;;;2.38;71.42;98537.53;106254;1273;111318;-72
2022/01/17 05:41:24;;;;;;;18.90;8.30;;;;;;;2.42;71.68;98530.33;106210;1274;97966;-74
2022/01/17 05:43:54;;;;;;;19.20;7.90;;;;;;;2.46;71.68;98523.80;106210;1273;108498;-73
2022/01/17 05:46:22;;;;;;;16.90;7.40;;;;;;;2.51;71.78;98517.48;106155;1274;98550;-74
2022/01/17 05:48:50;;;;;;;20.30;7.80;;;;;;;2.56;71.54;98503.07;106228;1274;96982;-73
2022/01/17 05:51:21;;;;;;;21.80;9.20;;;;;;;2.60;71.64;98507.08;106153;1274;111473;-74
2022/01/17 05:53:52;;;;;;;21.20;9.00;;;;;;;2.61;71.44;98490.02;106060;1274;97892;-73
2022/01/17 05:56:21;;;;;;;20.90;8.70;;;;;;;2.63;71.65;98489.58;106223;1274;107810;-73
2022/01/17 05:58:49;;;;;;;19.10;8.80;;;;;;;2.65;71.35;98492.29;106192;1273;97992;-72
2022/01/17 06:01:17;;;;;;;18.30;7.70;;;;;;;2.67;71.52;98479.91;106177;1274;97946;-75
2022/01/17 06:03:45;;;;;;;17.80;8.00;;;;;;;2.70;71.39;98471.75;106237;1274;111403;-72
2022/01/17 06:06:14;;;;;;;18.40;7.50;;;;;;;2.70;71.65;98475.58;106144;1274;95198;-73
2022/01/17 06:08:43;;;;;;;19.90;8.10;;;;;;;2.72;71.62;98473.41;106083;1274;107744;-73
2022/01/17 06:11:11;;;;;;;18.00;7.10;;;;;;;2.72;71.68;98468.99;106137;1274;96639;-73
2022/01/17 06:13:40;;;;;;;17.70;8.50;;;;;;;2.73;71.47;98459.48;106106;1274;97878;-74
2022/01/17 06:16:08;;;;;;;19.40;8.40;;;;;;;2.75;71.15;98457.66;106130;1274;111483;-73
2022/01/17 06:18:36;;;;;;;19.20;8.60;;;;;;;2.76;71.43;98455.83;106150;1274;97589;-73
2022/01/17 06:21:04;;;;;;;18.00;8.00;;;;;;;2.78;71.42;98456.10;106236;1274;107739;-71
2022/01/17 06:23:32;;;;;;;19.80;8.40;;;;;;;2.79;71.13;98450.45;106175;1274;97868;-72
2022/01/17 06:26:00;;;;;;;20.60;9.00;;;;;;;2.79;71.26;98442.39;106226;1273;97880;-73
2022/01/17 06:28:28;;;;;;;20.00;8.70;;;;;;;2.80;71.17;98436.39;106168;1274;111436;-72
2022/01/17 06:30:56;;;;;;;20.00;9.00;;;;;;;2.81;71.28;98435.66;106076;1274;97934;-71
2022/01/17 06:33:24;;;;;;;22.10;9.80;;;;;;;2.82;71.39;98433.48;106232;1274;107787;-75
2022/01/17 06:35:52;;;;;;;19.70;8.90;;;;;;;2.83;71.34;98423.98;106127;1274;97850;-72
2022/01/17 06:38:20;;;;;;;21.10;9.20;;;;;;;2.83;71.16;98413.14;106140;1274;97960;-72
2022/01/17 06:40:50;;;;;;;19.50;9.10;;;;;;;2.83;71.20;98409.79;106124;1274;111281;-72
2022/01/17 06:43:18;;;;;;;21.20;10.00;;;;;;;2.84;71.61;98403.78;106168;1273;97946;-72
2022/01/17 06:45:47;;;;;;;20.50;9.90;;;;;;;2.85;71.60;98399.73;106178;1274;107552;-73
2022/01/17 06:48:15;;;;;;;20.70;9.80;;;;;;;2.85;71.43;98389.59;106094;1274;97970;-72
2022/01/17 06:50:43;;;;;;;22.00;11.30;;;;;;;2.86;71.34;98380.23;106125;1274;95268;-72
2022/01/17 06:53:11;;;;;;;23.50;10.00;;;;;;;2.87;71.26;98370.36;106103;1274;111275;-71
2022/01/17 06:55:39;;;;;;;23.50;10.20;;;;;;;2.88;71.53;98371.71;106018;1274;97597;-72
2022/01/17 06:58:06;;;;;;;23.00;10.00;;;;;;;2.89;71.10;98367.27;106102;1272;107695;-72
2022/01/17 07:00:35;;;;;;;23.50;10.60;;;;;;;2.91;71.23;98365.27;106122;1272;97879;-71
2022/01/17 07:03:07;;;;;;;22.60;10.50;;;;;;;2.93;71.06;98369.71;106023;1274;97888;-74
2022/01/17 07:05:35;;;;;;;21.70;9.90;;;;;;;2.94;71.08;98352.64;106065;1274;111262;-73
2022/01/17 07:08:04;;;;;;;23.00;10.90;;;;;;;2.95;71.14;98337.56;106069;1274;96978;-75
2022/01/17 07:10:31;;;;;;;21.90;9.80;;;;;;;2.95;71.14;98320.88;106053;1273;107772;-71
2022/01/17 07:12:59;;;;;;;21.80;9.60;;;;;;;2.96;70.97;98309.48;106053;1274;98678;-73
2022/01/17 07:15:27;;;;;;;22.00;10.70;;;;;;;2.95;70.89;98313.89;106059;1274;97992;-73
2022/01/17 07:17:55;;;;;;;21.50;9.90;;;;;;;2.96;71.08;98308.58;106099;1273;111557;-71
2022/01/17 07:20:24;;;;;;;20.40;9.70;;;;;;;2.98;71.05;98317.60;106156;1273;97893;-73
2022/01/17 07:22:53;;;;;;;25.10;10.60;;;;;;;2.99;70.96;98328.56;106068;1274;107468;-71
2022/01/17 07:25:21;;;;;;;22.10;8.40;;;;;;;3.01;71.01;98358.07;106192;1274;96553;-72
2022/01/17 07:27:48;;;;;;;22.30;9.90;;;;;;;3.04;71.04;98375.81;106124;1274;97888;-72
2022/01/17 07:30:16;;;;;;;22.10;9.90;;;;;;;3.07;70.83;98373.17;106044;1274;111426;-73
2022/01/17 07:32:44;;;;;;;21.00;8.70;;;;;;;3.09;70.67;98363.09;106042;1274;97895;-73
2022/01/17 07:35:14;;;;;;;19.60;9.00;;;;;;;3.11;70.42;98338.95;106057;1273;107787;-72
2022/01/17 07:37:41;;;;;;;19.90;9.10;;;;;;;3.14;70.60;98326.74;106072;1274;97962;-74
2022/01/17 07:40:11;;;;;;;19.90;8.80;;;;;;;3.16;70.63;98325.24;106126;1274;95385;-74
2022/01/17 07:42:38;;;;;;;23.40;9.70;;;;;;;3.17;70.73;98319.01;106142;1274;111467;-76
2022/01/17 07:45:14;;;;;;;20.80;9.30;;;;;;;3.19;70.48;98312.44;106068;1274;97889;-73
2022/01/17 07:50:22;;;;;;;19.70;9.30;;;;;;;3.21;70.61;98278.52;106059;1274;97915;-74
2022/01/17 07:52:52;;;;;;;19.70;9.30;;;;;;;3.22;70.64;98258.84;106095;1273;97874;-73
2022/01/17 07:55:21;;;;;;;18.70;8.60;;;;;;;3.23;70.54;98237.77;106009;1273;112580;-73
2022/01/17 07:57:49;;;;;;;20.40;8.60;;;;;;;3.23;70.55;98214.48;106062;1274;96992;-74
2022/01/17 08:00:22;;;;;;;20.60;8.30;;;;;;;3.23;70.37;98193.57;106113;1273;107372;-72
2022/01/17 08:02:53;;;;;;;23.20;9.20;;;;;;;3.22;70.66;98187.89;106055;1274;95262;-73
2022/01/17 08:05:24;;;;;;;18.40;8.10;;;;;;;3.22;70.75;98177.74;106072;1273;97938;-73
2022/01/17 08:07:52;;;;;;;19.90;8.80;;;;;;;3.20;70.81;98176.44;106063;1274;111461;-73
2022/01/17 08:10:21;;;;;;;18.70;8.00;;;;;;;3.18;70.45;98170.96;106061;1274;96166;-73
2022/01/17 08:12:49;;;;;;;19.80;8.30;;;;;;;3.13;70.53;98168.06;106059;1274;107028;-74
2022/01/17 08:15:17;;;;;;;20.20;8.30;;;;;;;3.11;70.76;98161.52;106034;1274;98020;-75
2022/01/17 08:17:48;;;;;;;18.20;7.40;;;;;;;3.09;70.85;98152.70;106131;1274;97873;-74
2022/01/17 08:20:20;;;;;;;21.20;8.00;;;;;;;3.06;70.68;98160.73;106097;1273;111309;-73
2022/01/17 08:22:47;;;;;;;22.00;8.80;;;;;;;3.03;70.60;98168.64;106071;1274;97982;-74
2022/01/17 08:25:17;;;;;;;19.90;8.30;;;;;;;3.00;70.75;98174.20;105992;1274;106313;-72
2022/01/17 08:27:45;;;;;;;19.50;7.80;;;;;;;2.98;70.96;98174.52;106058;1272;97959;-74
2022/01/17 08:30:14;;;;;;;21.40;7.40;;;;;;;2.94;71.06;98152.82;106119;1273;95279;-73
2022/01/17 08:33:03;;;;;;;19.70;7.70;;;;;;;2.91;70.95;98150.20;106074;1274;111439;-74
2022/01/17 08:35:33;;;;;;;20.70;8.20;;;;;;;2.87;70.87;98150.43;106139;1274;98583;-73
2022/01/17 08:38:03;;;;;;;18.20;7.60;;;;;;;2.81;71.29;98150.04;106146;1274;107877;-73
2022/01/17 08:40:30;;;;;;;19.40;7.50;;;;;;;2.79;70.87;98153.48;106077;1274;97941;-73
2022/01/17 08:42:58;;;;;;;16.40;7.10;;;;;;;2.80;71.17;98155.36;106076;1274;97985;-73
2022/01/17 08:45:27;;;;;;;19.20;7.50;;;;;;;2.80;71.12;98132.24;106062;1274;111406;-72
2022/01/17 08:48:12;;;;;;;18.00;7.30;;;;;;;2.80;71.37;98123.66;106060;1272;98511;-72
2022/01/17 08:50:44;;;;;;;17.40;6.70;;;;;;;2.81;71.15;98125.17;106053;1274;106955;-75
2022/01/17 08:53:13;;;;;;;20.60;7.20;;;;;;;2.82;71.40;98115.65;106097;1274;95298;-74
2022/01/17 08:55:45;;;;;;;16.00;6.90;;;;;;;2.83;71.23;98103.02;106032;1274;98075;-72
2022/01/17 08:58:16;;;;;;;16.80;6.60;;;;;;;2.84;71.25;98074.59;106181;1274;111438;-72
2022/01/17 09:00:44;;;;;;;17.00;6.00;;;;;;;2.85;71.61;98061.73;106097;1274;95282;-72
2022/01/17 09:03:25;;;;;;;17.20;6.90;;;;;;;2.89;71.27;98061.02;106170;1273;107680;-74
2022/01/17 09:05:53;;;;;;;18.90;8.00;;;;;;;2.93;71.49;98049.92;106037;1274;98005;-73
2022/01/17 09:08:23;;;;;;;18.30;7.00;;;;;;;2.98;71.33;98046.13;106053;1273;97863;-75
2022/01/17 09:10:54;;;;;;;17.50;6.50;;;;;;;3.02;71.27;98052.77;106037;1274;111441;-74
2022/01/17 09:13:25;;;;;;;17.40;6.60;;;;;;;3.06;71.26;98035.88;106075;1274;97963;-73
2022/01/17 09:15:55;;;;;;;16.60;7.10;;;;;;;3.09;71.40;98025.17;106065;1274;107959;-73
2022/01/17 09:18:24;;;;;;;18.70;6.90;;;;;;;3.15;71.39;98026.73;106099;1273;95231;-72
2022/01/17 09:20:54;;;;;;;15.40;6.40;;;;;;;3.21;71.28;98016.45;106201;1274;95271;-76
2022/01/17 09:23:23;;;;;;;13.80;5.60;;;;;;;3.25;71.49;98027.73;106094;1274;113104;-74
2022/01/17 09:25:51;;;;;;;17.30;5.90;;;;;;;3.28;71.11;98011.77;106052;1274;97976;-73
2022/01/17 09:28:20;;;;;;;15.50;6.40;;;;;;;3.31;71.17;98009.33;106075;1273;107512;-74
2022/01/17 09:30:51;;;;;;;18.90;6.80;;;;;;;3.35;71.11;98016.83;106115;1274;97984;-72
2022/01/17 09:33:20;;;;;;;17.60;7.10;;;;;;;3.39;70.93;97997.81;106047;1274;97944;-70
2022/01/17 09:35:50;;;;;;;17.30;6.20;;;;;;;3.42;70.88;97999.55;106059;1274;110924;-71
2022/01/17 09:38:19;;;;;;;12.80;5.70;;;;;;;3.46;70.89;97978.34;106057;1272;97862;-71
2022/01/17 09:40:49;;;;;;;19.50;7.60;;;;;;;3.48;70.93;97976.95;106064;1274;107739;-70
2022/01/17 09:43:39;;;;;;;17.40;6.90;;;;;;;3.50;70.73;97960.34;106062;1271;95285;-70
2022/01/17 09:46:11;;;;;;;16.80;6.30;;;;;;;3.53;70.76;97952.43;106011;1274;97889;-70
2022/01/17 09:48:46;;;;;;;17.50;6.70;;;;;;;3.56;70.80;97945.09;106090;1274;111441;-70
2022/01/17 09:51:38;;;;;;;16.90;6.70;;;;;;;3.59;70.88;97943.84;106040;1274;97966;-71
2022/01/17 09:54:08;;;;;;;19.90;6.80;;;;;;;3.62;70.59;97950.16;106090;1274;107771;-71
2022/01/17 09:56:39;;;;;;;18.20;6.70;;;;;;;3.64;70.43;97951.59;106099;1274;97998;-72
2022/01/17 09:59:07;;;;;;;17.90;6.80;;;;;;;3.66;70.72;97938.52;106093;1274;97957;-71
2022/01/17 10:01:37;;;;;;;15.90;6.40;;;;;;;3.67;70.70;97935.13;106097;1272;111328;-71
2022/01/17 10:04:07;;;;;;;15.20;5.90;;;;;;;3.66;70.93;97938.66;106147;1274;97892;-72
2022/01/17 10:06:40;;;;;;;17.80;6.50;;;;;;;3.67;70.74;97939.33;106058;1273;107925;-71
2022/01/17 10:09:24;;;;;;;17.10;6.50;;;;;;;3.68;70.75;97939.63;106097;1274;97869;-71
2022/01/17 10:12:03;;;;;;;15.50;6.10;;;;;;;3.68;70.62;97958.72;106084;1273;95467;-71
2022/01/17 10:14:43;;;;;;;16.60;6.50;;;;;;;3.66;70.47;97950.77;106075;1274;112561;-73
2022/01/17 10:17:17;;;;;;;16.00;6.40;;;;;;;3.66;70.71;97948.19;106067;1273;98329;-72
2022/01/17 10:20:00;;;;;;;16.80;6.30;;;;;;;3.65;70.51;97933.86;106078;1274;107957;-71
2022/01/17 10:22:41;;;;;;;18.00;6.50;;;;;;;3.64;70.50;97924.27;106190;1272;98008;-75
2022/01/17 10:25:24;;;;;;;13.10;5.80;;;;;;;3.64;70.88;97920.55;106097;1274;97926;-72
2022/01/17 10:37:09;;;;;;;;;;;;;;;3.58;70.86;97876.06;106070;1274;97931;-72
2022/01/17 10:39:58;;;;;;;14.00;5.10;;;;;;;3.52;70.83;97871.15;106104;1273;97949;-70
2022/01/17 10:42:35;;;;;;;14.30;5.20;;;;;;;3.48;70.63;97864.61;106073;1273;111390;-72
2022/01/17 10:45:21;;;;;;;15.00;5.40;;;;;;;3.44;71.05;97865.92;106137;1274;95338;-71
2022/01/17 10:47:53;;;;;;;12.60;5.00;;;;;;;3.39;71.04;97874.99;106157;1273;106396;-71
2022/01/17 10:50:29;;;;;;;18.80;6.40;;;;;;;3.35;71.06;97865.58;106158;1273;97946;-71
2022/01/17 10:53:02;;;;;;;17.00;5.80;;;;;;;3.34;71.04;97856.39;106128;1273;96366;-70
2022/01/17 10:55:44;;;;;;;11.00;4.50;;;;;;;3.31;71.01;97862.33;106104;1274;111165;-73
2022/01/17 10:58:23;;;;;;;12.70;4.80;;;;;;;3.28;71.78;97884.76;106232;1273;97985;-74
2022/01/17 11:00:58;;;;;;;14.70;4.90;;;;;;;3.25;71.73;97849.23;106143;1274;107751;-74
2022/01/17 11:03:34;;;;;;;15.10;5.50;;;;;;;3.21;71.37;97849.25;106172;1273;98005;-75
2022/01/17 11:06:09;;;;;;;10.30;4.00;;;;;;;3.17;71.61;97850.06;106096;1274;95230;-73
2022/01/17 11:08:41;;;;;;;13.80;5.30;;;;;;;3.13;71.93;97828.73;106113;1274;111541;-77
2022/01/17 11:11:12;;;;;;;9.10;4.00;;;;;;;3.11;72.30;97842.14;106101;1272;95393;-75
2022/01/17 11:13:48;;;;;;;14.20;5.20;;;;;;;3.10;72.14;97831.02;106100;1274;107655;-74
2022/01/17 11:16:22;;;;;;;12.30;4.90;;;;;;;3.08;72.31;97812.91;106148;1274;97957;-73
2022/01/17 11:19:01;;;;;;;12.60;4.30;;;;;;;3.06;72.27;97820.05;106230;1274;97976;-74
2022/01/17 11:21:32;;;;;;;13.90;4.40;;;;;;;3.04;72.61;97813.17;106205;1273;111408;-72
2022/01/17 11:24:02;;;;;;;12.20;4.70;;;;;;;3.03;72.94;97794.48;106185;1274;97976;-72
2022/01/17 11:26:30;;;;;;;11.60;4.70;;;;;;;3.04;72.90;97788.66;106161;1274;109738;-71
2022/01/17 11:28:58;;;;;;;13.40;5.20;;;;;;;3.04;72.57;97783.73;106150;1273;99012;-72
2022/01/17 11:31:26;;;;;;;12.30;4.90;;;;;;;3.05;72.48;97762.00;106136;1274;97921;-73
2022/01/17 11:33:58;;;;;;;11.50;4.50;;;;;;;3.05;72.68;97765.13;105995;1274;112730;-74
2022/01/17 11:36:28;;;;;;;12.20;4.60;;;;;;;3.04;73.29;97749.94;106125;1274;97871;-75
2022/01/17 11:39:00;;;;;;;13.40;5.10;;;;;;;3.05;73.42;97752.14;106089;1274;107648;-76
2022/01/17 11:41:31;;;;;;;14.00;5.00;;;;;;;3.07;73.42;97771.33;106086;1274;97899;-73
2022/01/17 11:44:08;;;;;;;10.50;4.00;;;;;;;3.10;73.50;97752.23;106115;1274;95339;-73
2022/01/17 11:46:53;;;;;;;9.40;4.10;;;;;;;3.11;73.59;97731.64;106105;1273;111294;-74
2022/01/17 11:49:38;;;;;;;9.70;3.80;;;;;;;3.11;73.90;97746.90;106132;1274;95189;-74
2022/01/17 11:52:11;;;;;;;11.80;4.50;;;;;;;3.09;74.07;97735.27;106185;1274;107842;-72
2022/01/17 11:54:45;;;;;;;13.90;4.40;;;;;;;3.09;73.57;97736.67;106114;1272;95260;-72
2022/01/17 11:57:23;;;;;;;10.10;4.40;;;;;;;3.09;73.34;97749.83;106125;1273;97973;-72
2022/01/17 11:59:54;;;;;;;9.30;3.80;;;;;;;3.11;73.46;97741.27;106157;1272;111381;-74
2022/01/17 12:02:33;;;;;;;10.10;4.30;;;;;;;3.13;73.90;97737.32;106120;1274;95194;-74
2022/01/17 12:05:07;;;;;;;12.40;4.60;;;;;;;3.18;73.44;97731.42;106174;1274;107764;-73